sensor_id;sensor_type;location;lat;lon;timestamp;temperature;humidity
52127;DHT22;38120;53.176;6.614;2023-02-01T00:00:12;6.30;99.90
52127;DHT22;38120;53.176;6.614;2023-02-01T00:02:38;6.30;99.90
52127;DHT22;38120;53.176;6.614;2023-02-01T00:05:09;6.30;99.90
52127;DHT22;38120;53.176;6.614;2023-02-01T00:07:36;6.30;99.90
52127;DHT22;38120;53.176;6.614;2023-02-01T00:10:03;6.30;99.90
52127;DHT22;38120;53.176;6.614;2023-02-01T00:12:30;6.20;99.90
52127;DHT22;38120;53.176;6.614;2023-02-01T00:14:55;6.20;99.90
52127;DHT22;38120;53.176;6.614;2023-02-01T00:17:21;6.30;99.90
52127;DHT22;38120;53.176;6.614;2023-02-01T00:19:47;6.30;99.90
52127;DHT22;38120;53.176;6.614;2023-02-01T00:22:12;6.30;99.90
52127;DHT22;38120;53.176;6.614;2023-02-01T00:24:38;6.30;99.90
52127;DHT22;38120;53.176;6.614;2023-02-01T00:27:04;6.30;99.90
52127;DHT22;38120;53.176;6.614;2023-02-01T00:29:30;6.30;99.90
52127;DHT22;38120;53.176;6.614;2023-02-01T00:31:55;6.30;99.90
52127;DHT22;38120;53.176;6.614;2023-02-01T00:34:21;6.30;99.90
52127;DHT22;38120;53.176;6.614;2023-02-01T00:36:47;6.20;99.90
52127;DHT22;38120;53.176;6.614;2023-02-01T00:39:13;6.30;99.90
52127;DHT22;38120;53.176;6.614;2023-02-01T00:41:39;6.30;99.90
52127;DHT22;38120;53.176;6.614;2023-02-01T00:44:05;6.30;99.90
52127;DHT22;38120;53.176;6.614;2023-02-01T00:46:31;6.30;99.90
52127;DHT22;38120;53.176;6.614;2023-02-01T00:48:58;6.40;99.90
52127;DHT22;38120;53.176;6.614;2023-02-01T00:51:26;6.30;99.90
52127;DHT22;38120;53.176;6.614;2023-02-01T00:53:52;6.40;99.90
52127;DHT22;38120;53.176;6.614;2023-02-01T00:56:18;6.40;99.90
52127;DHT22;38120;53.176;6.614;2023-02-01T00:58:44;6.40;99.90
52127;DHT22;38120;53.176;6.614;2023-02-01T01:01:18;6.30;99.90
52127;DHT22;38120;53.176;6.614;2023-02-01T01:03:47;6.30;99.90
52127;DHT22;38120;53.176;6.614;2023-02-01T01:06:36;6.30;99.90
52127;DHT22;38120;53.176;6.614;2023-02-01T01:09:05;6.40;99.90
52127;DHT22;38120;53.176;6.614;2023-02-01T01:11:33;6.40;99.90
52127;DHT22;38120;53.176;6.614;2023-02-01T01:14:00;6.50;99.90
52127;DHT22;38120;53.176;6.614;2023-02-01T01:16:27;6.30;99.90
52127;DHT22;38120;53.176;6.614;2023-02-01T01:18:54;6.30;99.90
52127;DHT22;38120;53.176;6.614;2023-02-01T01:21:20;6.40;99.90
52127;DHT22;38120;53.176;6.614;2023-02-01T01:23:46;6.30;99.90
52127;DHT22;38120;53.176;6.614;2023-02-01T01:26:20;6.40;99.90
52127;DHT22;38120;53.176;6.614;2023-02-01T01:28:46;6.40;99.90
52127;DHT22;38120;53.176;6.614;2023-02-01T01:31:13;6.30;99.90
52127;DHT22;38120;53.176;6.614;2023-02-01T01:33:39;6.30;99.90
52127;DHT22;38120;53.176;6.614;2023-02-01T01:36:09;6.30;99.90
52127;DHT22;38120;53.176;6.614;2023-02-01T01:38:39;6.30;99.90
52127;DHT22;38120;53.176;6.614;2023-02-01T01:41:05;6.40;99.90
52127;DHT22;38120;53.176;6.614;2023-02-01T01:46:37;6.50;99.90
52127;DHT22;38120;53.176;6.614;2023-02-01T01:51:35;6.40;99.90
52127;DHT22;38120;53.176;6.614;2023-02-01T01:54:24;6.40;99.90
52127;DHT22;38120;53.176;6.614;2023-02-01T01:56:55;6.30;99.90
52127;DHT22;38120;53.176;6.614;2023-02-01T01:59:23;6.30;99.90
52127;DHT22;38120;53.176;6.614;2023-02-01T02:01:49;6.20;99.90
52127;DHT22;38120;53.176;6.614;2023-02-01T02:04:16;6.20;99.90
52127;DHT22;38120;53.176;6.614;2023-02-01T02:06:59;6.60;99.90
52127;DHT22;38120;53.176;6.614;2023-02-01T02:09:27;6.10;99.90
52127;DHT22;38120;53.176;6.614;2023-02-01T02:11:52;6.10;99.90
52127;DHT22;38120;53.176;6.614;2023-02-01T02:14:20;6.10;99.90
52127;DHT22;38120;53.176;6.614;2023-02-01T02:16:51;6.10;99.90
52127;DHT22;38120;53.176;6.614;2023-02-01T02:27:19;5.90;99.90
52127;DHT22;38120;53.176;6.614;2023-02-01T02:35:38;5.80;99.90
52127;DHT22;38120;53.176;6.614;2023-02-01T02:38:05;5.80;99.90
52127;DHT22;38120;53.176;6.614;2023-02-01T02:40:57;5.80;99.90
52127;DHT22;38120;53.176;6.614;2023-02-01T02:43:49;5.70;99.90
52127;DHT22;38120;53.176;6.614;2023-02-01T02:46:40;5.90;99.90
52127;DHT22;38120;53.176;6.614;2023-02-01T02:49:49;5.70;99.90
52127;DHT22;38120;53.176;6.614;2023-02-01T02:52:42;5.80;99.90
52127;DHT22;38120;53.176;6.614;2023-02-01T02:55:30;5.90;99.90
52127;DHT22;38120;53.176;6.614;2023-02-01T02:57:58;5.80;99.90
52127;DHT22;38120;53.176;6.614;2023-02-01T03:00:44;5.80;99.90
52127;DHT22;38120;53.176;6.614;2023-02-01T03:03:29;5.90;99.90
52127;DHT22;38120;53.176;6.614;2023-02-01T03:06:15;5.90;99.90
52127;DHT22;38120;53.176;6.614;2023-02-01T03:08:42;5.90;99.90
52127;DHT22;38120;53.176;6.614;2023-02-01T03:11:12;6.00;99.90
52127;DHT22;38120;53.176;6.614;2023-02-01T03:13:53;6.00;99.90
52127;DHT22;38120;53.176;6.614;2023-02-01T03:16:40;6.20;99.90
52127;DHT22;38120;53.176;6.614;2023-02-01T03:22:02;6.30;99.90
52127;DHT22;38120;53.176;6.614;2023-02-01T03:24:56;6.20;99.90
52127;DHT22;38120;53.176;6.614;2023-02-01T03:28:08;6.30;99.90
52127;DHT22;38120;53.176;6.614;2023-02-01T03:33:05;6.30;99.90
52127;DHT22;38120;53.176;6.614;2023-02-01T03:43:29;6.20;99.90
52127;DHT22;38120;53.176;6.614;2023-02-01T03:46:01;6.30;99.90
52127;DHT22;38120;53.176;6.614;2023-02-01T03:48:28;6.20;99.90
52127;DHT22;38120;53.176;6.614;2023-02-01T03:50:57;6.30;99.90
52127;DHT22;38120;53.176;6.614;2023-02-01T03:53:25;6.30;99.90
52127;DHT22;38120;53.176;6.614;2023-02-01T03:55:53;6.20;99.90
52127;DHT22;38120;53.176;6.614;2023-02-01T03:58:21;6.20;99.90
52127;DHT22;38120;53.176;6.614;2023-02-01T04:00:54;6.30;99.90
52127;DHT22;38120;53.176;6.614;2023-02-01T04:03:20;6.20;99.90
52127;DHT22;38120;53.176;6.614;2023-02-01T04:05:48;6.10;99.90
52127;DHT22;38120;53.176;6.614;2023-02-01T04:08:14;6.70;99.90
52127;DHT22;38120;53.176;6.614;2023-02-01T04:10:40;6.00;99.90
52127;DHT22;38120;53.176;6.614;2023-02-01T04:13:06;6.00;99.90
52127;DHT22;38120;53.176;6.614;2023-02-01T04:15:32;6.00;99.90
52127;DHT22;38120;53.176;6.614;2023-02-01T04:17:59;6.20;99.90
52127;DHT22;38120;53.176;6.614;2023-02-01T04:20:24;6.10;99.90
52127;DHT22;38120;53.176;6.614;2023-02-01T04:22:50;6.20;99.90
52127;DHT22;38120;53.176;6.614;2023-02-01T04:25:16;6.10;99.90
52127;DHT22;38120;53.176;6.614;2023-02-01T04:27:43;6.10;99.90
52127;DHT22;38120;53.176;6.614;2023-02-01T04:30:09;6.20;99.90
52127;DHT22;38120;53.176;6.614;2023-02-01T04:32:36;6.20;99.90
52127;DHT22;38120;53.176;6.614;2023-02-01T04:35:02;6.20;99.90
52127;DHT22;38120;53.176;6.614;2023-02-01T04:37:27;6.20;99.90
52127;DHT22;38120;53.176;6.614;2023-02-01T04:39:54;6.20;99.90
52127;DHT22;38120;53.176;6.614;2023-02-01T04:42:20;6.20;99.90
52127;DHT22;38120;53.176;6.614;2023-02-01T04:44:46;6.40;99.90
52127;DHT22;38120;53.176;6.614;2023-02-01T04:47:12;6.30;99.90
52127;DHT22;38120;53.176;6.614;2023-02-01T04:49:38;6.30;99.90
52127;DHT22;38120;53.176;6.614;2023-02-01T04:52:04;6.20;99.90
52127;DHT22;38120;53.176;6.614;2023-02-01T04:54:29;6.20;99.90
52127;DHT22;38120;53.176;6.614;2023-02-01T04:56:55;6.20;99.90
52127;DHT22;38120;53.176;6.614;2023-02-01T04:59:21;6.30;99.90
52127;DHT22;38120;53.176;6.614;2023-02-01T05:01:46;6.80;99.90
52127;DHT22;38120;53.176;6.614;2023-02-01T05:04:12;6.30;99.90
52127;DHT22;38120;53.176;6.614;2023-02-01T05:06:38;6.60;99.90
52127;DHT22;38120;53.176;6.614;2023-02-01T05:09:04;6.30;99.90
52127;DHT22;38120;53.176;6.614;2023-02-01T05:11:29;6.30;99.90
52127;DHT22;38120;53.176;6.614;2023-02-01T05:14:14;6.60;99.90
52127;DHT22;38120;53.176;6.614;2023-02-01T05:16:39;6.30;99.90
52127;DHT22;38120;53.176;6.614;2023-02-01T05:19:05;6.30;99.90
52127;DHT22;38120;53.176;6.614;2023-02-01T05:21:31;6.30;99.90
52127;DHT22;38120;53.176;6.614;2023-02-01T05:23:56;6.50;99.90
52127;DHT22;38120;53.176;6.614;2023-02-01T05:26:46;6.20;99.90
52127;DHT22;38120;53.176;6.614;2023-02-01T05:29:12;6.20;99.90
52127;DHT22;38120;53.176;6.614;2023-02-01T05:31:38;6.20;99.90
52127;DHT22;38120;53.176;6.614;2023-02-01T05:34:05;6.20;99.90
52127;DHT22;38120;53.176;6.614;2023-02-01T05:36:31;6.20;99.90
52127;DHT22;38120;53.176;6.614;2023-02-01T05:38:57;6.30;99.90
52127;DHT22;38120;53.176;6.614;2023-02-01T05:41:23;6.30;99.90
52127;DHT22;38120;53.176;6.614;2023-02-01T05:43:48;6.30;99.90
52127;DHT22;38120;53.176;6.614;2023-02-01T05:46:14;6.30;99.90
52127;DHT22;38120;53.176;6.614;2023-02-01T05:48:40;6.40;99.90
52127;DHT22;38120;53.176;6.614;2023-02-01T05:51:07;6.40;99.90
52127;DHT22;38120;53.176;6.614;2023-02-01T05:53:33;6.40;99.90
52127;DHT22;38120;53.176;6.614;2023-02-01T05:55:58;6.50;99.90
52127;DHT22;38120;53.176;6.614;2023-02-01T05:58:24;6.60;99.90
52127;DHT22;38120;53.176;6.614;2023-02-01T06:00:50;6.60;99.90
52127;DHT22;38120;53.176;6.614;2023-02-01T06:03:17;6.50;99.90
52127;DHT22;38120;53.176;6.614;2023-02-01T06:05:46;6.50;99.90
52127;DHT22;38120;53.176;6.614;2023-02-01T06:08:13;6.40;99.90
52127;DHT22;38120;53.176;6.614;2023-02-01T06:10:39;6.40;99.90
52127;DHT22;38120;53.176;6.614;2023-02-01T06:13:05;6.10;99.90
52127;DHT22;38120;53.176;6.614;2023-02-01T06:15:31;6.40;99.90
52127;DHT22;38120;53.176;6.614;2023-02-01T06:17:58;6.40;99.90
52127;DHT22;38120;53.176;6.614;2023-02-01T06:20:24;6.40;99.90
52127;DHT22;38120;53.176;6.614;2023-02-01T06:22:49;6.30;99.90
52127;DHT22;38120;53.176;6.614;2023-02-01T06:25:15;6.30;99.90
52127;DHT22;38120;53.176;6.614;2023-02-01T06:27:42;6.30;99.90
52127;DHT22;38120;53.176;6.614;2023-02-01T06:30:08;6.30;99.90
52127;DHT22;38120;53.176;6.614;2023-02-01T06:32:34;6.30;99.90
52127;DHT22;38120;53.176;6.614;2023-02-01T06:35:00;6.40;99.90
52127;DHT22;38120;53.176;6.614;2023-02-01T06:37:26;6.40;99.90
52127;DHT22;38120;53.176;6.614;2023-02-01T06:39:53;6.60;99.90
52127;DHT22;38120;53.176;6.614;2023-02-01T06:42:18;6.40;99.90
52127;DHT22;38120;53.176;6.614;2023-02-01T06:44:44;6.40;99.90
52127;DHT22;38120;53.176;6.614;2023-02-01T06:47:10;6.40;99.90
52127;DHT22;38120;53.176;6.614;2023-02-01T06:49:36;6.40;99.90
52127;DHT22;38120;53.176;6.614;2023-02-01T06:52:02;6.40;99.90
52127;DHT22;38120;53.176;6.614;2023-02-01T06:54:28;6.40;99.90
52127;DHT22;38120;53.176;6.614;2023-02-01T06:56:55;6.60;99.90
52127;DHT22;38120;53.176;6.614;2023-02-01T06:59:21;6.40;99.90
52127;DHT22;38120;53.176;6.614;2023-02-01T07:01:47;6.40;99.90
52127;DHT22;38120;53.176;6.614;2023-02-01T07:04:13;6.40;99.90
52127;DHT22;38120;53.176;6.614;2023-02-01T07:06:39;6.40;99.90
52127;DHT22;38120;53.176;6.614;2023-02-01T07:09:06;6.40;99.90
52127;DHT22;38120;53.176;6.614;2023-02-01T07:11:32;6.40;99.90
52127;DHT22;38120;53.176;6.614;2023-02-01T07:13:58;7.80;99.90
52127;DHT22;38120;53.176;6.614;2023-02-01T07:16:24;6.50;99.90
52127;DHT22;38120;53.176;6.614;2023-02-01T07:18:51;6.50;99.90
52127;DHT22;38120;53.176;6.614;2023-02-01T07:21:18;6.50;99.90
52127;DHT22;38120;53.176;6.614;2023-02-01T07:23:44;6.50;99.90
52127;DHT22;38120;53.176;6.614;2023-02-01T07:26:11;6.50;99.90
52127;DHT22;38120;53.176;6.614;2023-02-01T07:28:41;6.50;99.90
52127;DHT22;38120;53.176;6.614;2023-02-01T07:31:12;6.50;99.90
52127;DHT22;38120;53.176;6.614;2023-02-01T07:33:41;6.70;99.90
52127;DHT22;38120;53.176;6.614;2023-02-01T07:36:10;6.50;99.90
52127;DHT22;38120;53.176;6.614;2023-02-01T07:38:36;6.50;99.90
52127;DHT22;38120;53.176;6.614;2023-02-01T07:41:03;6.80;99.90
52127;DHT22;38120;53.176;6.614;2023-02-01T07:43:30;6.50;99.90
52127;DHT22;38120;53.176;6.614;2023-02-01T07:45:57;6.40;99.90
52127;DHT22;38120;53.176;6.614;2023-02-01T07:48:24;6.40;99.90
52127;DHT22;38120;53.176;6.614;2023-02-01T07:51:04;6.50;99.90
52127;DHT22;38120;53.176;6.614;2023-02-01T07:53:31;6.50;99.90
52127;DHT22;38120;53.176;6.614;2023-02-01T07:55:57;6.50;99.90
52127;DHT22;38120;53.176;6.614;2023-02-01T07:58:24;6.40;99.90
52127;DHT22;38120;53.176;6.614;2023-02-01T08:00:51;6.60;99.90
52127;DHT22;38120;53.176;6.614;2023-02-01T08:03:35;6.50;99.90
52127;DHT22;38120;53.176;6.614;2023-02-01T08:06:01;6.50;99.90
52127;DHT22;38120;53.176;6.614;2023-02-01T08:08:27;6.50;99.90
52127;DHT22;38120;53.176;6.614;2023-02-01T08:11:04;6.50;99.90
52127;DHT22;38120;53.176;6.614;2023-02-01T08:13:30;6.90;99.90
52127;DHT22;38120;53.176;6.614;2023-02-01T08:16:00;6.50;99.90
52127;DHT22;38120;53.176;6.614;2023-02-01T08:18:27;6.60;99.90
52127;DHT22;38120;53.176;6.614;2023-02-01T08:20:53;6.50;99.90
52127;DHT22;38120;53.176;6.614;2023-02-01T08:23:19;6.60;99.90
52127;DHT22;38120;53.176;6.614;2023-02-01T08:25:45;6.60;99.90
52127;DHT22;38120;53.176;6.614;2023-02-01T08:28:11;6.50;99.90
52127;DHT22;38120;53.176;6.614;2023-02-01T08:30:39;6.60;99.90
52127;DHT22;38120;53.176;6.614;2023-02-01T08:33:08;6.70;99.90
52127;DHT22;38120;53.176;6.614;2023-02-01T08:35:38;6.50;99.90
52127;DHT22;38120;53.176;6.614;2023-02-01T08:38:04;6.60;99.90
52127;DHT22;38120;53.176;6.614;2023-02-01T08:40:30;6.60;99.90
52127;DHT22;38120;53.176;6.614;2023-02-01T08:42:56;6.70;99.90
52127;DHT22;38120;53.176;6.614;2023-02-01T08:45:25;6.60;99.90
52127;DHT22;38120;53.176;6.614;2023-02-01T08:47:52;6.70;99.90
52127;DHT22;38120;53.176;6.614;2023-02-01T08:50:18;6.90;99.90
52127;DHT22;38120;53.176;6.614;2023-02-01T08:52:45;6.60;99.90
52127;DHT22;38120;53.176;6.614;2023-02-01T08:55:11;6.60;99.90
52127;DHT22;38120;53.176;6.614;2023-02-01T08:57:37;6.60;99.90
52127;DHT22;38120;53.176;6.614;2023-02-01T09:00:05;6.60;99.90
52127;DHT22;38120;53.176;6.614;2023-02-01T09:02:31;6.60;99.90
52127;DHT22;38120;53.176;6.614;2023-02-01T09:04:57;6.70;99.90
52127;DHT22;38120;53.176;6.614;2023-02-01T09:07:23;6.60;99.90
52127;DHT22;38120;53.176;6.614;2023-02-01T09:09:49;6.60;99.90
52127;DHT22;38120;53.176;6.614;2023-02-01T09:12:15;6.90;99.90
52127;DHT22;38120;53.176;6.614;2023-02-01T09:14:41;6.60;99.90
52127;DHT22;38120;53.176;6.614;2023-02-01T09:17:06;6.60;99.90
52127;DHT22;38120;53.176;6.614;2023-02-01T09:19:32;6.60;99.90
52127;DHT22;38120;53.176;6.614;2023-02-01T09:21:58;6.60;99.90
52127;DHT22;38120;53.176;6.614;2023-02-01T09:24:24;6.60;99.90
52127;DHT22;38120;53.176;6.614;2023-02-01T09:26:50;6.60;99.90
52127;DHT22;38120;53.176;6.614;2023-02-01T09:29:17;6.60;99.90
52127;DHT22;38120;53.176;6.614;2023-02-01T09:31:43;6.60;99.90
52127;DHT22;38120;53.176;6.614;2023-02-01T09:34:09;6.60;99.90
52127;DHT22;38120;53.176;6.614;2023-02-01T09:36:35;6.60;99.90
52127;DHT22;38120;53.176;6.614;2023-02-01T09:39:02;6.60;99.90
52127;DHT22;38120;53.176;6.614;2023-02-01T09:47:16;6.70;99.90
52127;DHT22;38120;53.176;6.614;2023-02-01T09:50:13;6.70;99.90
52127;DHT22;38120;53.176;6.614;2023-02-01T09:55:26;6.60;99.90
52127;DHT22;38120;53.176;6.614;2023-02-01T09:58:00;6.50;99.90
52127;DHT22;38120;53.176;6.614;2023-02-01T10:00:35;6.50;99.90
52127;DHT22;38120;53.176;6.614;2023-02-01T10:03:02;6.50;99.90
52127;DHT22;38120;53.176;6.614;2023-02-01T10:08:32;6.40;99.90
52127;DHT22;38120;53.176;6.614;2023-02-01T10:12:04;6.40;99.90
52127;DHT22;38120;53.176;6.614;2023-02-01T10:20:17;6.30;99.90
52127;DHT22;38120;53.176;6.614;2023-02-01T10:23:08;6.20;99.90
52127;DHT22;38120;53.176;6.614;2023-02-01T10:25:44;6.20;99.90
52127;DHT22;38120;53.176;6.614;2023-02-01T10:28:17;6.20;99.90
52127;DHT22;38120;53.176;6.614;2023-02-01T10:30:46;6.20;99.90
52127;DHT22;38120;53.176;6.614;2023-02-01T10:33:30;6.50;99.90
52127;DHT22;38120;53.176;6.614;2023-02-01T10:36:15;6.30;99.90
52127;DHT22;38120;53.176;6.614;2023-02-01T10:38:43;6.40;99.90
52127;DHT22;38120;53.176;6.614;2023-02-01T10:41:15;6.40;99.90
52127;DHT22;38120;53.176;6.614;2023-02-01T10:43:43;6.50;99.90
52127;DHT22;38120;53.176;6.614;2023-02-01T10:46:11;6.80;99.90
52127;DHT22;38120;53.176;6.614;2023-02-01T10:48:37;6.70;99.90
52127;DHT22;38120;53.176;6.614;2023-02-01T10:51:07;6.90;99.90
52127;DHT22;38120;53.176;6.614;2023-02-01T10:53:57;6.80;99.90
52127;DHT22;38120;53.176;6.614;2023-02-01T10:56:27;6.80;99.90
52127;DHT22;38120;53.176;6.614;2023-02-01T10:59:05;6.80;99.90
52127;DHT22;38120;53.176;6.614;2023-02-01T11:01:33;6.90;99.90
52127;DHT22;38120;53.176;6.614;2023-02-01T11:04:04;6.90;99.90
52127;DHT22;38120;53.176;6.614;2023-02-01T11:17:00;6.40;99.90
52127;DHT22;38120;53.176;6.614;2023-02-01T11:19:26;6.30;99.90
52127;DHT22;38120;53.176;6.614;2023-02-01T11:21:54;6.30;99.90
52127;DHT22;38120;53.176;6.614;2023-02-01T11:24:22;6.40;99.90
52127;DHT22;38120;53.176;6.614;2023-02-01T11:26:48;6.90;99.90
52127;DHT22;38120;53.176;6.614;2023-02-01T11:29:18;6.40;99.90
52127;DHT22;38120;53.176;6.614;2023-02-01T11:31:48;6.30;99.90
52127;DHT22;38120;53.176;6.614;2023-02-01T11:34:19;6.30;99.90
52127;DHT22;38120;53.176;6.614;2023-02-01T11:36:48;6.30;99.90
52127;DHT22;38120;53.176;6.614;2023-02-01T11:42:12;6.30;99.90
52127;DHT22;38120;53.176;6.614;2023-02-01T11:44:43;6.50;99.90
52127;DHT22;38120;53.176;6.614;2023-02-01T11:49:52;6.60;99.90
52127;DHT22;38120;53.176;6.614;2023-02-01T12:12:19;7.10;99.90
52127;DHT22;38120;53.176;6.614;2023-02-01T12:14:51;7.10;99.90
52127;DHT22;38120;53.176;6.614;2023-02-01T12:23:40;7.50;99.90
52127;DHT22;38120;53.176;6.614;2023-02-01T12:31:53;7.60;99.90
52127;DHT22;38120;53.176;6.614;2023-02-01T12:34:28;7.60;99.90
52127;DHT22;38120;53.176;6.614;2023-02-01T12:40:16;8.00;99.90
52127;DHT22;38120;53.176;6.614;2023-02-01T12:45:44;8.00;99.90
52127;DHT22;38120;53.176;6.614;2023-02-01T12:48:48;7.80;99.90
52127;DHT22;38120;53.176;6.614;2023-02-01T12:51:20;7.70;99.90
52127;DHT22;38120;53.176;6.614;2023-02-01T12:56:38;7.60;99.90
52127;DHT22;38120;53.176;6.614;2023-02-01T12:59:16;7.70;99.90
52127;DHT22;38120;53.176;6.614;2023-02-01T13:01:59;7.70;99.90
52127;DHT22;38120;53.176;6.614;2023-02-01T13:04:43;7.90;99.90
52127;DHT22;38120;53.176;6.614;2023-02-01T13:07:17;7.80;99.90
52127;DHT22;38120;53.176;6.614;2023-02-01T13:12:19;7.80;99.90
52127;DHT22;38120;53.176;6.614;2023-02-01T13:14:55;7.80;99.90
52127;DHT22;38120;53.176;6.614;2023-02-01T13:17:31;7.80;99.90
52127;DHT22;38120;53.176;6.614;2023-02-01T13:22:39;7.90;99.90
52127;DHT22;38120;53.176;6.614;2023-02-01T13:27:49;7.80;99.90
52127;DHT22;38120;53.176;6.614;2023-02-01T13:30:32;7.80;99.90
52127;DHT22;38120;53.176;6.614;2023-02-01T13:39:03;8.00;99.90
52127;DHT22;38120;53.176;6.614;2023-02-01T13:41:52;8.00;99.90
52127;DHT22;38120;53.176;6.614;2023-02-01T13:44:39;7.90;99.90
52127;DHT22;38120;53.176;6.614;2023-02-01T13:47:29;7.90;99.90
52127;DHT22;38120;53.176;6.614;2023-02-01T13:50:01;7.80;99.90
52127;DHT22;38120;53.176;6.614;2023-02-01T13:52:38;7.90;99.90
52127;DHT22;38120;53.176;6.614;2023-02-01T13:57:45;7.90;99.90
52127;DHT22;38120;53.176;6.614;2023-02-01T14:02:48;8.00;99.90
52127;DHT22;38120;53.176;6.614;2023-02-01T14:08:11;7.90;99.90
52127;DHT22;38120;53.176;6.614;2023-02-01T14:11:30;7.90;99.90
52127;DHT22;38120;53.176;6.614;2023-02-01T14:13:53;8.00;99.90
52127;DHT22;38120;53.176;6.614;2023-02-01T14:16:18;7.80;99.90
52127;DHT22;38120;53.176;6.614;2023-02-01T14:21:29;7.90;99.90
52127;DHT22;38120;53.176;6.614;2023-02-01T14:26:46;7.80;99.90
52127;DHT22;38120;53.176;6.614;2023-02-01T14:31:58;7.80;99.90
52127;DHT22;38120;53.176;6.614;2023-02-01T14:34:35;7.80;99.90
52127;DHT22;38120;53.176;6.614;2023-02-01T14:37:07;7.80;99.90
52127;DHT22;38120;53.176;6.614;2023-02-01T14:39:40;7.80;99.90
52127;DHT22;38120;53.176;6.614;2023-02-01T14:44:55;7.90;99.90
52127;DHT22;38120;53.176;6.614;2023-02-01T15:01:36;7.70;99.90
52127;DHT22;38120;53.176;6.614;2023-02-01T15:06:41;8.10;99.90
52127;DHT22;38120;53.176;6.614;2023-02-01T15:09:26;7.70;99.90
52127;DHT22;38120;53.176;6.614;2023-02-01T15:12:04;7.60;99.90
52127;DHT22;38120;53.176;6.614;2023-02-01T15:14:34;7.60;99.90
52127;DHT22;38120;53.176;6.614;2023-02-01T15:17:01;7.60;99.90
52127;DHT22;38120;53.176;6.614;2023-02-01T15:19:28;7.60;99.90
52127;DHT22;38120;53.176;6.614;2023-02-01T15:21:56;7.60;99.90
52127;DHT22;38120;53.176;6.614;2023-02-01T15:24:26;7.60;99.90
52127;DHT22;38120;53.176;6.614;2023-02-01T15:26:54;7.60;99.90
52127;DHT22;38120;53.176;6.614;2023-02-01T15:29:22;7.60;99.90
52127;DHT22;38120;53.176;6.614;2023-02-01T15:31:52;7.60;99.90
52127;DHT22;38120;53.176;6.614;2023-02-01T15:34:19;7.60;99.90
52127;DHT22;38120;53.176;6.614;2023-02-01T15:36:46;7.70;99.90
52127;DHT22;38120;53.176;6.614;2023-02-01T15:39:23;7.70;99.90
52127;DHT22;38120;53.176;6.614;2023-02-01T15:41:56;7.70;99.90
52127;DHT22;38120;53.176;6.614;2023-02-01T15:44:58;7.70;99.90
52127;DHT22;38120;53.176;6.614;2023-02-01T15:47:27;7.60;99.90
52127;DHT22;38120;53.176;6.614;2023-02-01T15:49:55;7.60;99.90
52127;DHT22;38120;53.176;6.614;2023-02-01T15:54:53;7.50;99.90
52127;DHT22;38120;53.176;6.614;2023-02-01T15:57:23;7.50;99.90
52127;DHT22;38120;53.176;6.614;2023-02-01T16:00:00;7.50;99.90
52127;DHT22;38120;53.176;6.614;2023-02-01T16:02:37;7.50;99.90
52127;DHT22;38120;53.176;6.614;2023-02-01T16:05:34;7.40;99.90
52127;DHT22;38120;53.176;6.614;2023-02-01T16:10:42;7.30;99.90
52127;DHT22;38120;53.176;6.614;2023-02-01T16:13:09;7.20;99.90
52127;DHT22;38120;53.176;6.614;2023-02-01T16:15:35;7.10;99.90
52127;DHT22;38120;53.176;6.614;2023-02-01T16:18:01;7.10;99.90
52127;DHT22;38120;53.176;6.614;2023-02-01T16:20:26;7.80;99.90
52127;DHT22;38120;53.176;6.614;2023-02-01T16:22:52;6.90;99.90
52127;DHT22;38120;53.176;6.614;2023-02-01T16:25:18;7.00;99.90
52127;DHT22;38120;53.176;6.614;2023-02-01T16:27:44;7.00;99.90
52127;DHT22;38120;53.176;6.614;2023-02-01T16:30:10;6.90;99.90
52127;DHT22;38120;53.176;6.614;2023-02-01T16:32:37;6.90;99.90
52127;DHT22;38120;53.176;6.614;2023-02-01T16:35:05;6.90;99.90
52127;DHT22;38120;53.176;6.614;2023-02-01T16:37:31;6.90;99.90
52127;DHT22;38120;53.176;6.614;2023-02-01T16:39:59;6.80;99.90
52127;DHT22;38120;53.176;6.614;2023-02-01T16:42:24;6.80;99.90
52127;DHT22;38120;53.176;6.614;2023-02-01T16:44:50;6.90;99.90
52127;DHT22;38120;53.176;6.614;2023-02-01T16:47:21;6.80;99.90
52127;DHT22;38120;53.176;6.614;2023-02-01T16:49:47;6.80;99.90
52127;DHT22;38120;53.176;6.614;2023-02-01T16:52:22;6.80;99.90
52127;DHT22;38120;53.176;6.614;2023-02-01T16:54:48;6.80;99.90
52127;DHT22;38120;53.176;6.614;2023-02-01T16:57:16;6.70;99.90
52127;DHT22;38120;53.176;6.614;2023-02-01T16:59:43;6.60;99.90
52127;DHT22;38120;53.176;6.614;2023-02-01T17:02:18;6.60;99.90
52127;DHT22;38120;53.176;6.614;2023-02-01T17:04:47;7.60;99.90
52127;DHT22;38120;53.176;6.614;2023-02-01T17:07:17;6.60;99.90
52127;DHT22;38120;53.176;6.614;2023-02-01T17:09:45;6.50;99.90
52127;DHT22;38120;53.176;6.614;2023-02-01T17:12:37;6.60;99.90
52127;DHT22;38120;53.176;6.614;2023-02-01T17:15:03;6.50;99.90
52127;DHT22;38120;53.176;6.614;2023-02-01T17:17:36;6.60;99.90
52127;DHT22;38120;53.176;6.614;2023-02-01T17:20:03;6.60;99.90
52127;DHT22;38120;53.176;6.614;2023-02-01T17:22:30;6.70;99.90
52127;DHT22;38120;53.176;6.614;2023-02-01T17:24:55;6.80;99.90
52127;DHT22;38120;53.176;6.614;2023-02-01T17:27:21;6.70;99.90
52127;DHT22;38120;53.176;6.614;2023-02-01T17:29:46;6.70;99.90
52127;DHT22;38120;53.176;6.614;2023-02-01T17:32:19;6.70;99.90
52127;DHT22;38120;53.176;6.614;2023-02-01T17:34:45;6.70;99.90
52127;DHT22;38120;53.176;6.614;2023-02-01T17:37:33;6.80;99.90
52127;DHT22;38120;53.176;6.614;2023-02-01T17:39:59;6.60;99.90
52127;DHT22;38120;53.176;6.614;2023-02-01T17:42:27;7.20;99.90
52127;DHT22;38120;53.176;6.614;2023-02-01T17:45:19;6.50;99.90
52127;DHT22;38120;53.176;6.614;2023-02-01T17:47:46;6.60;99.90
52127;DHT22;38120;53.176;6.614;2023-02-01T17:50:13;6.60;99.90
52127;DHT22;38120;53.176;6.614;2023-02-01T17:52:38;6.60;99.90
52127;DHT22;38120;53.176;6.614;2023-02-01T17:55:19;6.60;99.90
52127;DHT22;38120;53.176;6.614;2023-02-01T17:57:48;6.60;99.90
52127;DHT22;38120;53.176;6.614;2023-02-01T18:00:15;6.50;99.90
52127;DHT22;38120;53.176;6.614;2023-02-01T18:02:41;6.60;99.90
52127;DHT22;38120;53.176;6.614;2023-02-01T18:05:21;6.50;99.90
52127;DHT22;38120;53.176;6.614;2023-02-01T18:07:48;6.50;99.90
52127;DHT22;38120;53.176;6.614;2023-02-01T18:10:14;6.50;99.90
52127;DHT22;38120;53.176;6.614;2023-02-01T18:12:40;6.40;99.90
52127;DHT22;38120;53.176;6.614;2023-02-01T18:15:14;6.90;99.90
52127;DHT22;38120;53.176;6.614;2023-02-01T18:17:43;6.40;99.90
52127;DHT22;38120;53.176;6.614;2023-02-01T18:20:29;6.40;99.90
52127;DHT22;38120;53.176;6.614;2023-02-01T18:22:55;6.40;99.90
52127;DHT22;38120;53.176;6.614;2023-02-01T18:25:26;6.50;99.90
52127;DHT22;38120;53.176;6.614;2023-02-01T18:27:55;6.60;99.90
52127;DHT22;38120;53.176;6.614;2023-02-01T18:30:24;7.20;99.90
52127;DHT22;38120;53.176;6.614;2023-02-01T18:32:53;6.70;99.90
52127;DHT22;38120;53.176;6.614;2023-02-01T18:35:24;6.50;99.90
52127;DHT22;38120;53.176;6.614;2023-02-01T18:37:54;6.60;99.90
52127;DHT22;38120;53.176;6.614;2023-02-01T18:40:26;6.60;99.90
52127;DHT22;38120;53.176;6.614;2023-02-01T18:42:53;6.50;99.90
52127;DHT22;38120;53.176;6.614;2023-02-01T18:45:32;7.00;99.90